createdAt,value
2023-03-21T00:01:55.596Z,100251.96
2023-03-21T00:04:25.614Z,100251.11
2023-03-21T00:06:53.825Z,100246.16
2023-03-21T00:09:21.690Z,100241.52
2023-03-21T00:11:49.451Z,100242.63
2023-03-21T00:14:18.905Z,100242.17
2023-03-21T00:16:53.103Z,100240.52
2023-03-21T00:19:21.915Z,100237.66
2023-03-21T00:22:06.650Z,100237.42
2023-03-21T00:24:36.513Z,100236.42
2023-03-21T00:29:52.445Z,100233.70
2023-03-21T00:32:21.916Z,100231.98
2023-03-21T00:35:11.950Z,100229.27
2023-03-21T00:37:40.373Z,100230.83
2023-03-21T00:40:23.070Z,100232.66
2023-03-21T00:42:53.531Z,100232.20
2023-03-21T00:45:22.251Z,100233.38
2023-03-21T00:47:50.254Z,100232.59
2023-03-21T00:50:18.204Z,100234.80
2023-03-21T00:52:46.126Z,100235.05
2023-03-21T00:55:15.355Z,100235.19
2023-03-21T00:57:47.503Z,100234.45
2023-03-21T01:04:03.200Z,100229.10
2023-03-21T01:06:39.297Z,100231.53
2023-03-21T01:09:12.448Z,100234.10
2023-03-21T01:11:41.806Z,100231.77
2023-03-21T01:14:22.534Z,100229.02
2023-03-21T01:16:53.370Z,100225.77
2023-03-21T01:19:37.909Z,100228.35
2023-03-21T01:22:12.636Z,100222.53
2023-03-21T01:24:50.672Z,100220.66
2023-03-21T01:27:22.061Z,100221.43
2023-03-21T01:29:49.935Z,100217.05
2023-03-21T01:32:17.815Z,100215.41
2023-03-21T01:34:45.792Z,100215.42
2023-03-21T01:37:15.180Z,100217.88
2023-03-21T01:39:51.274Z,100212.61
2023-03-21T01:42:19.923Z,100211.65
2023-03-21T01:44:59.796Z,100213.23
2023-03-21T01:47:35.562Z,100211.90
2023-03-21T01:50:29.762Z,100210.77
2023-03-21T01:53:07.197Z,100206.89
2023-03-21T01:55:37.529Z,100206.31
2023-03-21T01:58:30.025Z,100199.85
2023-03-21T02:01:04.974Z,100199.34
2023-03-21T02:03:50.380Z,100197.20
2023-03-21T02:06:35.374Z,100193.55
2023-03-21T02:09:13.753Z,100198.87
2023-03-21T02:11:46.446Z,100202.51
2023-03-21T02:14:23.401Z,100202.45
2023-03-21T02:17:05.259Z,100200.71
2023-03-21T02:20:02.554Z,100200.17
2023-03-21T02:22:42.012Z,100194.69
2023-03-21T02:25:27.834Z,100205.30
2023-03-21T02:28:11.729Z,100205.32
2023-03-21T02:30:58.689Z,100206.30
2023-03-21T02:33:45.574Z,100205.38
2023-03-21T02:36:26.384Z,100196.75
2023-03-21T02:38:59.927Z,100197.20
2023-03-21T02:41:40.701Z,100196.98
2023-03-21T02:44:11.704Z,100204.02
2023-03-21T02:47:02.993Z,100202.81
2023-03-21T02:49:43.191Z,100202.22
2023-03-21T02:52:31.871Z,100204.76
2023-03-21T02:55:20.322Z,100212.45
2023-03-21T02:57:54.590Z,100212.55
2023-03-21T03:00:49.729Z,100207.55
2023-03-21T03:03:34.586Z,100211.42
2023-03-21T03:06:13.486Z,100211.91
2023-03-21T03:09:02.528Z,100211.43
2023-03-21T03:11:39.982Z,100209.15
2023-03-21T03:15:04.837Z,100215.42
2023-03-21T03:17:47.589Z,100220.98
2023-03-21T03:20:39.429Z,100217.77
2023-03-21T03:23:19.510Z,100218.25
2023-03-21T03:26:08.575Z,100217.60
2023-03-21T03:28:41.368Z,100217.52
2023-03-21T03:31:21.965Z,100218.38
2023-03-21T03:33:58.260Z,100218.75
2023-03-21T03:36:37.060Z,100217.84
2023-03-21T03:39:15.876Z,100223.69
2023-03-21T03:42:12.639Z,100226.60
2023-03-21T03:44:48.755Z,100224.59
2023-03-21T03:47:33.691Z,100226.60
2023-03-21T03:50:19.284Z,100225.92
2023-03-21T03:52:57.394Z,100224.80
2023-03-21T03:55:34.359Z,100228.45
2023-03-21T03:58:19.641Z,100231.41
2023-03-21T04:00:52.189Z,100230.90
2023-03-21T04:03:20.831Z,100228.05
2023-03-21T04:05:49.399Z,100224.07
2023-03-21T04:08:17.581Z,100222.91
2023-03-21T04:10:49.562Z,100221.17
2023-03-21T04:13:17.666Z,100216.20
2023-03-21T04:16:07.808Z,100226.11
2023-03-21T04:18:35.979Z,100224.86
2023-03-21T04:21:10.857Z,100222.96
2023-03-21T04:23:40.720Z,100224.44
2023-03-21T04:26:09.668Z,100228.41
2023-03-21T04:28:41.631Z,100222.15
2023-03-21T04:31:41.544Z,100225.16
2023-03-21T04:34:13.260Z,100221.85
2023-03-21T04:36:46.287Z,100227.94
2023-03-21T04:39:15.066Z,100227.91
2023-03-21T04:41:45.001Z,100227.94
2023-03-21T04:44:15.909Z,100230.30
2023-03-21T04:46:44.173Z,100229.54
2023-03-21T04:49:12.623Z,100231.59
2023-03-21T04:51:40.678Z,100228.98
2023-03-21T04:56:42.918Z,100240.48
2023-03-21T04:59:13.485Z,100239.91
2023-03-21T05:01:43.679Z,100241.92
2023-03-21T05:04:13.820Z,100246.19
2023-03-21T05:06:45.263Z,100244.46
2023-03-21T05:09:13.416Z,100245.33
2023-03-21T05:11:42.023Z,100245.45
2023-03-21T05:14:15.273Z,100248.32
2023-03-21T05:16:48.513Z,100249.15
2023-03-21T05:19:19.010Z,100251.95
2023-03-21T05:21:47.159Z,100251.23
2023-03-21T05:24:22.291Z,100255.64
2023-03-21T05:26:50.779Z,100256.75
2023-03-21T05:29:20.328Z,100254.81
2023-03-21T05:31:57.276Z,100254.60
2023-03-21T05:34:25.582Z,100250.68
2023-03-21T05:36:54.532Z,100249.91
2023-03-21T05:39:22.791Z,100262.52
2023-03-21T05:42:06.882Z,100260.05
2023-03-21T05:44:35.008Z,100261.41
2023-03-21T05:47:06.150Z,100263.77
2023-03-21T05:49:44.684Z,100265.39
2023-03-21T05:52:13.020Z,100263.69
2023-03-21T05:54:40.864Z,100267.98
2023-03-21T05:57:09.022Z,100271.45
2023-03-21T06:04:03.444Z,100274.77
2023-03-21T06:06:30.205Z,100276.60
2023-03-21T06:08:59.283Z,100277.30
2023-03-21T06:11:30.013Z,100280.84
2023-03-21T06:14:31.653Z,100288.13
2023-03-21T06:17:18.335Z,100287.78
2023-03-21T06:19:52.013Z,100291.65
2023-03-21T06:22:31.071Z,100288.77
2023-03-21T06:24:57.731Z,100289.69
2023-03-21T06:27:24.380Z,100290.98
2023-03-21T06:29:53.165Z,100290.99
2023-03-21T06:32:19.628Z,100288.79
2023-03-21T06:34:46.811Z,100294.30
2023-03-21T06:37:14.665Z,100299.84
2023-03-21T06:39:41.279Z,100298.02
2023-03-21T06:42:08.224Z,100304.73
2023-03-21T06:44:35.004Z,100304.17
2023-03-21T06:47:05.589Z,100306.23
2023-03-21T06:49:33.395Z,100306.41
2023-03-21T06:52:06.091Z,100314.54
2023-03-21T06:54:32.400Z,100312.60
2023-03-21T06:57:01.560Z,100314.42
2023-03-21T07:03:33.574Z,100317.36
2023-03-21T07:06:11.076Z,100321.05
2023-03-21T07:08:39.131Z,100321.63
2023-03-21T07:11:05.778Z,100322.54
2023-03-21T07:13:32.695Z,100322.53
2023-03-21T07:16:03.762Z,100327.93
2023-03-21T07:18:30.864Z,100326.85
2023-03-21T07:20:57.433Z,100325.45
2023-03-21T07:23:25.186Z,100330.62
2023-03-21T07:25:52.641Z,100328.00
2023-03-21T07:28:20.045Z,100326.03
2023-03-21T07:30:55.275Z,100329.48
2023-03-21T07:33:22.844Z,100327.23
2023-03-21T07:35:51.743Z,100331.64
2023-03-21T07:38:18.994Z,100330.88
2023-03-21T07:40:46.960Z,100332.81
2023-03-21T07:43:15.247Z,100329.14
2023-03-21T07:45:43.987Z,100325.77
2023-03-21T07:48:13.393Z,100323.16
2023-03-21T07:50:40.348Z,100328.20
2023-03-21T07:53:07.521Z,100328.75
2023-03-21T07:55:34.339Z,100334.89
2023-03-21T07:58:01.966Z,100333.90
2023-03-21T08:00:28.622Z,100336.33
2023-03-21T08:02:58.693Z,100337.82
2023-03-21T08:05:29.444Z,100333.22
2023-03-21T08:07:56.754Z,100338.02
2023-03-21T08:10:23.564Z,100336.94
2023-03-21T08:12:49.957Z,100340.65
2023-03-21T08:15:16.814Z,100343.50
2023-03-21T08:17:44.927Z,100341.27
2023-03-21T08:20:17.356Z,100339.66
2023-03-21T08:22:43.882Z,100342.83
2023-03-21T08:25:15.223Z,100342.98
2023-03-21T08:27:43.930Z,100345.66
2023-03-21T08:30:13.654Z,100344.58
2023-03-21T08:32:41.519Z,100345.98
2023-03-21T08:35:11.142Z,100346.52
2023-03-21T08:37:39.481Z,100346.42
2023-03-21T08:40:12.609Z,100350.36
2023-03-21T08:42:40.636Z,100355.42
2023-03-21T08:45:09.046Z,100355.33
2023-03-21T08:47:35.528Z,100359.77
2023-03-21T08:50:05.889Z,100363.46
2023-03-21T08:52:32.885Z,100361.47
2023-03-21T08:55:01.546Z,100361.02
2023-03-21T08:57:28.570Z,100366.13
2023-03-21T08:59:57.160Z,100369.79
2023-03-21T09:02:23.547Z,100368.70
2023-03-21T09:04:52.370Z,100372.92
2023-03-21T09:07:19.437Z,100376.12
2023-03-21T09:09:53.427Z,100373.60
2023-03-21T09:12:24.733Z,100375.45
2023-03-21T09:14:52.561Z,100375.36
2023-03-21T09:17:21.156Z,100378.55
2023-03-21T09:19:48.564Z,100382.94
2023-03-21T09:22:16.738Z,100383.46
2023-03-21T09:24:48.570Z,100382.20
2023-03-21T09:27:22.285Z,100386.29
2023-03-21T09:29:49.380Z,100387.58
2023-03-21T09:32:17.514Z,100394.23
2023-03-21T09:34:44.896Z,100397.92
2023-03-21T09:37:13.029Z,100396.67
2023-03-21T09:39:42.213Z,100393.98
2023-03-21T09:42:47.498Z,100392.83
2023-03-21T09:45:48.056Z,100392.16
2023-03-21T09:48:29.545Z,100394.81
2023-03-21T09:50:57.847Z,100390.87
2023-03-21T09:53:35.072Z,100393.36
2023-03-21T09:56:03.231Z,100388.92
2023-03-21T09:58:39.415Z,100392.56
2023-03-21T10:01:21.920Z,100392.25
2023-03-21T10:03:53.029Z,100394.39
2023-03-21T10:06:21.185Z,100394.55
2023-03-21T10:08:48.397Z,100393.88
2023-03-21T10:11:28.936Z,100393.66
2023-03-21T10:13:59.003Z,100392.73
2023-03-21T10:16:40.952Z,100394.36
2023-03-21T10:19:14.675Z,100397.10
2023-03-21T10:21:59.590Z,100398.25
2023-03-21T10:24:28.974Z,100404.69
2023-03-21T10:26:58.647Z,100404.52
2023-03-21T10:29:27.881Z,100407.11
2023-03-21T10:31:55.114Z,100411.09
2023-03-21T10:34:42.074Z,100412.29
2023-03-21T10:37:10.938Z,100413.39
2023-03-21T10:39:46.154Z,100413.55
2023-03-21T10:42:20.632Z,100416.63
2023-03-21T10:44:49.075Z,100415.20
2023-03-21T10:47:24.932Z,100418.50
2023-03-21T10:50:08.972Z,100419.20
2023-03-21T10:52:41.244Z,100415.05
2023-03-21T10:55:28.541Z,100418.80
2023-03-21T10:57:59.391Z,100415.42
2023-03-21T11:04:06.198Z,100413.39
2023-03-21T11:06:39.265Z,100413.41
2023-03-21T11:09:15.530Z,100413.67
2023-03-21T11:11:54.324Z,100409.29
2023-03-21T11:14:43.049Z,100412.02
2023-03-21T11:17:16.816Z,100413.14
2023-03-21T11:20:09.156Z,100410.33
2023-03-21T11:22:43.510Z,100408.52
2023-03-21T11:25:23.791Z,100409.02
2023-03-21T11:27:56.857Z,100402.80
2023-03-21T11:30:27.258Z,100402.27
2023-03-21T11:32:57.209Z,100395.77
2023-03-21T11:35:33.124Z,100399.42
2023-03-21T11:38:01.396Z,100394.77
2023-03-21T11:40:32.040Z,100396.89
2023-03-21T11:43:01.448Z,100398.41
2023-03-21T11:45:39.313Z,100395.18
2023-03-21T11:48:14.870Z,100395.45
2023-03-21T11:50:48.867Z,100396.33
2023-03-21T11:53:41.704Z,100396.59
2023-03-21T11:56:32.201Z,100399.52
2023-03-21T11:59:24.621Z,100399.80
2023-03-21T12:02:00.307Z,100398.98
2023-03-21T12:04:34.495Z,100398.23
2023-03-21T12:07:37.667Z,100399.71
2023-03-21T12:10:36.515Z,100395.71
2023-03-21T12:13:19.033Z,100400.95
2023-03-21T12:16:04.920Z,100397.77
2023-03-21T12:18:35.737Z,100395.95
2023-03-21T12:21:23.884Z,100393.91
2023-03-21T12:24:29.333Z,100393.24
2023-03-21T12:27:04.527Z,100389.62
2023-03-21T12:30:12.260Z,100386.34
2023-03-21T12:33:04.229Z,100385.86
2023-03-21T12:36:00.778Z,100383.55
2023-03-21T12:38:39.270Z,100385.81
2023-03-21T12:41:16.045Z,100381.43
2023-03-21T12:44:00.836Z,100381.53
2023-03-21T12:46:50.893Z,100382.86
2023-03-21T12:49:33.171Z,100380.10
2023-03-21T12:52:12.666Z,100374.33
2023-03-21T12:54:59.294Z,100376.36
2023-03-21T12:57:40.194Z,100374.87
2023-03-21T13:00:17.639Z,100374.80
2023-03-21T13:03:12.492Z,100374.73
2023-03-21T13:05:49.759Z,100376.48
2023-03-21T13:08:28.864Z,100370.95
2023-03-21T13:10:59.570Z,100371.15
2023-03-21T13:13:43.057Z,100368.02
2023-03-21T13:16:29.478Z,100384.42
2023-03-21T13:19:04.828Z,100382.17
2023-03-21T13:21:51.066Z,100385.68
2023-03-21T13:24:40.193Z,100380.70
2023-03-21T13:27:24.923Z,100375.47
2023-03-21T13:29:59.967Z,100374.32
2023-03-21T13:32:40.800Z,100375.52
2023-03-21T13:35:09.798Z,100369.20
2023-03-21T13:37:40.975Z,100371.23
2023-03-21T13:40:23.499Z,100366.70
2023-03-21T13:42:59.515Z,100366.20
2023-03-21T13:45:32.390Z,100366.60
2023-03-21T13:48:30.438Z,100366.48
2023-03-21T13:51:06.534Z,100363.95
2023-03-21T13:53:45.643Z,100368.91
2023-03-21T13:56:16.256Z,100366.98
2023-03-21T13:58:43.988Z,100369.34
2023-03-21T14:01:30.627Z,100371.91
2023-03-21T14:04:24.053Z,100369.73
2023-03-21T14:07:08.260Z,100370.89
2023-03-21T14:09:39.058Z,100369.65
2023-03-21T14:12:11.587Z,100367.92
2023-03-21T14:15:16.106Z,100367.92
2023-03-21T14:18:16.075Z,100366.80
2023-03-21T14:20:54.623Z,100368.52
2023-03-21T14:23:23.013Z,100362.90
2023-03-21T14:25:51.605Z,100364.40
2023-03-21T14:28:28.193Z,100361.20
2023-03-21T14:31:00.358Z,100361.08
2023-03-21T14:33:41.505Z,100358.77
2023-03-21T14:36:20.330Z,100356.92
2023-03-21T14:39:05.633Z,100360.09
2023-03-21T14:41:43.487Z,100360.81
2023-03-21T14:44:26.140Z,100359.11
2023-03-21T14:47:06.630Z,100361.95
2023-03-21T14:49:36.771Z,100356.27
2023-03-21T14:52:10.320Z,100357.92
2023-03-21T14:54:44.133Z,100354.98
2023-03-21T14:57:15.412Z,100351.90
2023-03-21T14:59:43.400Z,100350.40
2023-03-21T15:02:25.373Z,100352.50
2023-03-21T15:04:58.206Z,100349.83
2023-03-21T15:07:30.369Z,100345.61
2023-03-21T15:10:03.279Z,100343.64
2023-03-21T15:12:33.290Z,100345.63
2023-03-21T15:36:25.382Z,100336.38
2023-03-21T15:38:53.035Z,100346.15
2023-03-21T15:41:19.602Z,100343.27
2023-03-21T15:43:47.165Z,100344.73
2023-03-21T15:46:17.456Z,100343.73
2023-03-21T15:48:44.781Z,100344.44
2023-03-21T15:51:23.012Z,100345.61
2023-03-21T15:53:53.419Z,100345.05
2023-03-21T15:56:21.521Z,100342.49
2023-03-21T15:58:52.028Z,100345.96
2023-03-21T16:01:21.409Z,100345.84
2023-03-21T16:03:54.341Z,100342.80
2023-03-21T16:06:25.317Z,100345.36
2023-03-21T16:09:13.745Z,100338.40
2023-03-21T16:11:48.712Z,100344.84
2023-03-21T16:14:15.414Z,100345.00
2023-03-21T16:16:42.105Z,100342.34
2023-03-21T16:19:09.423Z,100343.98
2023-03-21T16:21:41.097Z,100344.92
2023-03-21T16:24:11.440Z,100343.88
2023-03-21T16:26:45.069Z,100345.94
2023-03-21T16:29:13.944Z,100345.91
2023-03-21T16:31:41.441Z,100342.14
2023-03-21T16:34:10.008Z,100340.42
2023-03-21T16:36:39.700Z,100345.31
2023-03-21T16:39:17.211Z,100345.45
2023-03-21T16:41:43.593Z,100345.48
2023-03-21T16:44:11.034Z,100345.90
2023-03-21T16:46:37.392Z,100344.60
2023-03-21T16:49:04.182Z,100349.92
2023-03-21T16:51:35.567Z,100351.58
2023-03-21T16:54:02.352Z,100349.30
2023-03-21T16:56:51.963Z,100350.27
2023-03-21T16:59:18.999Z,100355.21
2023-03-21T17:01:47.833Z,100360.45
2023-03-21T17:04:16.293Z,100364.56
2023-03-21T17:06:51.566Z,100367.36
2023-03-21T17:09:21.001Z,100367.33
2023-03-21T17:11:48.575Z,100371.07
2023-03-21T17:14:17.344Z,100374.73
2023-03-21T17:16:44.890Z,100381.33
2023-03-21T17:19:12.673Z,100380.52
2023-03-21T17:21:40.220Z,100385.28
2023-03-21T17:24:08.768Z,100384.86
2023-03-21T17:26:35.852Z,100382.06
2023-03-21T17:29:03.328Z,100385.77
2023-03-21T17:31:36.148Z,100386.63
2023-03-21T17:34:04.432Z,100392.02
2023-03-21T17:36:34.020Z,100393.90
2023-03-21T17:39:01.239Z,100398.76
2023-03-21T17:41:27.955Z,100401.75
2023-03-21T17:43:55.704Z,100399.68
2023-03-21T17:46:26.674Z,100399.50
2023-03-21T17:48:52.989Z,100405.73
2023-03-21T17:51:19.662Z,100406.16
2023-03-21T17:53:49.061Z,100407.74
2023-03-21T17:56:25.501Z,100412.34
2023-03-21T17:58:53.488Z,100413.55
2023-03-21T18:01:20.606Z,100416.84
2023-03-21T18:03:47.428Z,100419.23
2023-03-21T18:06:17.595Z,100420.24
2023-03-21T18:08:48.078Z,100421.74
2023-03-21T18:11:16.308Z,100430.46
2023-03-21T18:13:43.775Z,100433.84
2023-03-21T18:16:19.421Z,100435.23
2023-03-21T18:18:46.181Z,100436.58
2023-03-21T18:21:18.942Z,100438.40
2023-03-21T18:23:47.036Z,100440.36
2023-03-21T18:26:19.728Z,100440.48
2023-03-21T18:29:26.280Z,100435.94
2023-03-21T18:31:36.425Z,100443.02
2023-03-21T18:34:02.868Z,100444.69
2023-03-21T18:36:29.307Z,100443.35
2023-03-21T18:38:55.988Z,100447.89
2023-03-21T18:41:22.629Z,100447.61
2023-03-21T18:44:12.955Z,100449.65
2023-03-21T18:46:36.259Z,100449.73
2023-03-21T18:49:33.459Z,100447.45
2023-03-21T18:51:51.850Z,100451.31
2023-03-21T18:54:18.781Z,100458.14
2023-03-21T18:59:39.514Z,100458.62
2023-03-21T19:02:06.770Z,100457.05
2023-03-21T19:04:33.617Z,100456.27
2023-03-21T19:07:00.151Z,100454.11
2023-03-21T19:09:31.220Z,100449.48
2023-03-21T19:12:02.601Z,100447.96
2023-03-21T19:14:29.795Z,100443.85
2023-03-21T19:19:45.202Z,100442.38
2023-03-21T19:22:12.118Z,100442.24
2023-03-21T19:24:39.741Z,100439.67
2023-03-21T19:27:06.910Z,100442.40
2023-03-21T19:29:34.024Z,100447.40
2023-03-21T19:32:01.319Z,100452.98
2023-03-21T19:34:28.740Z,100453.41
2023-03-21T19:36:56.798Z,100451.39
2023-03-21T19:39:24.444Z,100452.42
2023-03-21T19:41:51.742Z,100453.36
2023-03-21T19:44:21.117Z,100451.54
2023-03-21T19:46:48.450Z,100455.98
2023-03-21T19:49:19.667Z,100453.17
2023-03-21T19:51:47.029Z,100455.64
2023-03-21T19:54:13.697Z,100458.32
2023-03-21T19:56:47.091Z,100458.21
2023-03-21T19:59:14.604Z,100457.09
2023-03-21T20:01:41.161Z,100457.85
2023-03-21T20:04:08.656Z,100460.45
2023-03-21T20:06:35.814Z,100459.02
2023-03-21T20:09:47.298Z,100459.05
2023-03-21T20:11:49.832Z,100460.08
2023-03-21T20:14:16.192Z,100463.20
2023-03-21T20:16:43.701Z,100466.77
2023-03-21T20:19:15.506Z,100469.95
2023-03-21T20:21:49.770Z,100474.72
2023-03-21T20:24:20.069Z,100472.16
2023-03-21T20:26:46.544Z,100474.69
2023-03-21T20:30:07.095Z,100473.30
2023-03-21T20:32:00.162Z,100475.76
2023-03-21T20:34:28.475Z,100479.10
2023-03-21T20:36:55.700Z,100476.39
2023-03-21T20:39:22.591Z,100473.70
2023-03-21T20:41:49.139Z,100478.01
2023-03-21T20:47:04.942Z,100475.05
2023-03-21T20:49:31.542Z,100472.31
2023-03-21T20:54:46.369Z,100473.95
2023-03-21T20:57:12.763Z,100470.40
2023-03-21T20:59:40.172Z,100466.92
2023-03-21T21:02:06.730Z,100465.31
2023-03-21T21:05:15.643Z,100464.71
2023-03-21T21:07:21.366Z,100459.92
2023-03-21T21:09:48.575Z,100454.64
2023-03-21T21:12:18.418Z,100452.80
2023-03-21T21:14:45.153Z,100457.94
2023-03-21T21:17:27.691Z,100457.10
2023-03-21T21:19:59.667Z,100459.64
2023-03-21T21:22:27.517Z,100458.55
2023-03-21T21:24:53.844Z,100455.63
2023-03-21T21:27:20.625Z,100456.05
2023-03-21T21:29:49.169Z,100451.45
2023-03-21T21:32:17.635Z,100456.16
2023-03-21T21:34:43.980Z,100454.09
2023-03-21T21:37:10.303Z,100455.30
2023-03-21T21:39:38.096Z,100455.35
2023-03-21T21:42:05.123Z,100454.54
2023-03-21T21:44:31.647Z,100455.95
2023-03-21T21:46:58.755Z,100454.55
2023-03-21T21:49:27.166Z,100449.92
2023-03-21T21:51:53.605Z,100450.69
2023-03-21T21:54:19.976Z,100451.52
2023-03-21T21:56:53.273Z,100452.23
2023-03-21T21:59:21.405Z,100448.36
2023-03-21T22:01:50.475Z,100453.00
2023-03-21T22:04:17.403Z,100456.85
2023-03-21T22:06:43.842Z,100462.79
2023-03-21T22:09:10.250Z,100464.17
2023-03-21T22:11:36.608Z,100465.09
2023-03-21T22:14:03.012Z,100464.42
2023-03-21T22:16:29.999Z,100466.16
2023-03-21T22:18:56.456Z,100463.64
2023-03-21T22:21:23.118Z,100463.52
2023-03-21T22:23:49.659Z,100467.42
2023-03-21T22:26:16.207Z,100461.83
2023-03-21T22:28:43.503Z,100462.42
2023-03-21T22:31:15.636Z,100459.82
2023-03-21T22:33:43.044Z,100453.22
2023-03-21T22:36:10.178Z,100453.35
2023-03-21T22:38:37.478Z,100452.41
2023-03-21T22:41:05.391Z,100455.11
2023-03-21T22:43:33.432Z,100452.02
2023-03-21T22:46:01.754Z,100454.52
2023-03-21T22:48:29.442Z,100452.56
2023-03-21T22:50:57.382Z,100448.42
2023-03-21T22:53:24.142Z,100451.30
2023-03-21T22:55:50.587Z,100451.67
2023-03-21T22:58:17.414Z,100452.06
2023-03-21T23:00:43.802Z,100452.81
2023-03-21T23:03:10.561Z,100451.96
2023-03-21T23:05:41.381Z,100450.15
2023-03-21T23:08:08.398Z,100451.51
2023-03-21T23:10:39.743Z,100451.18
2023-03-21T23:13:06.257Z,100450.59
2023-03-21T23:15:32.610Z,100444.86
2023-03-21T23:17:59.088Z,100453.73
2023-03-21T23:20:25.575Z,100455.99
2023-03-21T23:22:51.937Z,100458.29
2023-03-21T23:25:19.886Z,100459.04
2023-03-21T23:27:46.482Z,100460.21
2023-03-21T23:30:13.119Z,100459.52
2023-03-21T23:32:39.524Z,100457.02
2023-03-21T23:35:06.670Z,100458.92
2023-03-21T23:37:33.231Z,100454.85
2023-03-21T23:39:59.798Z,100446.54
2023-03-21T23:42:28.575Z,100445.97
2023-03-21T23:44:54.996Z,100441.57
2023-03-21T23:47:21.399Z,100437.98
2023-03-21T23:49:49.412Z,100433.79
2023-03-21T23:52:15.819Z,100438.08
2023-03-21T23:54:42.174Z,100436.06
2023-03-21T23:57:08.523Z,100440.04
2023-03-21T23:59:34.995Z,100439.55
